Aviation Digital Data Service (ADDS)

Output produced by METARs form (2058 UTC 27 August 2014)
found at http://www.aviationweather.gov/adds/metars/
 
KSBY 272054Z 01004KT 10SM CLR 31/16 A2994 RMK AO2 SLP140 T03110161 56019
KSBY 271737Z 2718/2818 VRB05KT P6SM SKC 
     FM280000 00000KT P6SM SKC 
     FM280400 00000KT 2SM BR SKC 
     FM281300 34008KT P6SM SKC